Belle Prairie, Nebraska
Current Conditions -  °F | °C
As of 4:15 AM on Thursday 29 Jan 2015 (Local Time) from KHJH Reporting Station
Overcast Overcast  
Wind Chill: 30°   Ceiling: 2300
Heat Index: 38°   Visibility: 10mi
Dew Point: 28°   Wind: 14mph
Humidity: 67%   Direction: 350°N
Pressure: 30.23"   Gusts: 24mph
Location:  40.3936°N, 97.5387°W
Report Text: KHJH 291015Z AUTO 35012G21KT 10SM OVC023 04/M02 A3023 RMK AO2 T00361020
Loading
Personal Weather Stations






























Interactive Weather Map New forecast layout! Learn more

10-Day Weather Forecast

Advertisements
Track Severe Weather on mobile